createdAt,value
2022-08-10T00:00:16.825Z,7.40
2022-08-10T00:03:37.730Z,7.10
2022-08-10T00:06:39.755Z,8.00
2022-08-10T00:09:50.801Z,7.90
2022-08-10T00:12:55.190Z,7.50
2022-08-10T00:15:57.606Z,8.40
2022-08-10T00:18:59.888Z,7.30
2022-08-10T00:22:01.761Z,6.70
2022-08-10T00:25:04.279Z,7.70
2022-08-10T00:28:06.263Z,7.60
2022-08-10T00:31:08.035Z,7.90
2022-08-10T00:34:09.893Z,7.70
2022-08-10T00:37:13.110Z,7.00
2022-08-10T00:40:15.042Z,7.30
2022-08-10T00:43:23.326Z,7.30
2022-08-10T00:46:26.363Z,7.60
2022-08-10T00:49:28.442Z,7.40
2022-08-10T00:52:30.578Z,8.20
2022-08-10T00:55:32.975Z,9.00
2022-08-10T00:58:54.681Z,10.40
2022-08-10T01:02:09.473Z,7.90
2022-08-10T01:05:14.615Z,7.30
2022-08-10T01:08:26.557Z,8.50
2022-08-10T01:12:38.476Z,8.70
2022-08-10T01:15:22.872Z,8.10
2022-08-10T01:18:37.682Z,7.90
2022-08-10T01:21:59.825Z,8.10
2022-08-10T01:25:24.805Z,8.90
2022-08-10T01:28:38.670Z,9.90
2022-08-10T01:31:46.137Z,9.70
2022-08-10T01:35:07.136Z,9.50
2022-08-10T01:38:36.702Z,8.90
2022-08-10T01:41:46.345Z,10.00
2022-08-10T01:45:02.266Z,9.50
2022-08-10T01:48:24.551Z,9.00
2022-08-10T01:51:35.586Z,9.20
2022-08-10T01:54:39.415Z,8.60
2022-08-10T01:57:42.481Z,8.30
2022-08-10T02:00:45.814Z,7.20
2022-08-10T02:04:04.007Z,6.40
2022-08-10T02:07:11.554Z,7.30
2022-08-10T02:10:15.318Z,6.70
2022-08-10T02:13:19.063Z,7.00
2022-08-10T02:16:21.822Z,7.30
2022-08-10T02:19:25.323Z,6.70
2022-08-10T02:22:38.037Z,7.10
2022-08-10T02:25:48.540Z,7.40
2022-08-10T02:28:52.175Z,7.60
2022-08-10T02:31:55.599Z,8.30
2022-08-10T02:34:59.472Z,8.20
2022-08-10T02:38:05.215Z,7.90
2022-08-10T02:45:00.994Z,7.70
2022-08-10T02:45:21.241Z,7.80
2022-08-10T02:48:32.743Z,8.30
2022-08-10T02:52:07.476Z,8.50
2022-08-10T02:55:19.748Z,7.90
2022-08-10T02:58:33.479Z,7.50
2022-08-10T03:01:40.889Z,8.90
2022-08-10T03:04:55.034Z,6.80
2022-08-10T03:08:06.614Z,6.30
2022-08-10T03:11:10.737Z,6.10
2022-08-10T03:14:14.364Z,6.20
2022-08-10T03:17:17.338Z,6.70
2022-08-10T03:20:35.902Z,6.70
2022-08-10T03:23:42.081Z,6.80
2022-08-10T03:26:44.282Z,7.60
2022-08-10T03:30:31.780Z,7.80
2022-08-10T03:33:08.950Z,7.60
2022-08-10T03:36:40.242Z,7.00
2022-08-10T03:39:32.885Z,7.40
2022-08-10T03:42:39.589Z,6.70
2022-08-10T03:45:49.420Z,7.10
2022-08-10T03:49:02.017Z,7.70
2022-08-10T03:52:06.415Z,9.20
2022-08-10T03:55:08.704Z,9.30
2022-08-10T03:58:11.195Z,8.90
2022-08-10T04:01:14.989Z,8.50
2022-08-10T04:04:22.877Z,8.90
2022-08-10T04:07:26.737Z,9.00
2022-08-10T04:10:29.439Z,9.30
2022-08-10T04:13:31.349Z,9.10
2022-08-10T04:16:33.065Z,9.00
2022-08-10T04:19:41.239Z,9.60
2022-08-10T04:22:44.971Z,9.70
2022-08-10T04:25:46.787Z,9.10
2022-08-10T04:28:49.322Z,10.20
2022-08-10T04:31:52.868Z,10.50
2022-08-10T04:34:55.904Z,10.10
2022-08-10T04:37:58.552Z,9.80
2022-08-10T04:41:01.473Z,9.90
2022-08-10T04:44:03.680Z,9.10
2022-08-10T04:47:05.749Z,9.10
2022-08-10T04:50:10.024Z,8.40
2022-08-10T04:53:11.822Z,8.60
2022-08-10T04:56:14.204Z,8.50
2022-08-10T04:59:16.254Z,8.40
2022-08-10T05:02:29.663Z,8.50
2022-08-10T05:05:39.786Z,8.00
2022-08-10T05:08:41.530Z,8.00
2022-08-10T05:11:44.248Z,7.60
2022-08-10T05:14:46.196Z,8.10
2022-08-10T05:18:06.077Z,8.00
2022-08-10T05:21:10.182Z,7.70
2022-08-10T05:24:11.824Z,7.30
2022-08-10T05:27:13.576Z,8.30
2022-08-10T05:30:21.274Z,7.90
2022-08-10T05:33:22.951Z,7.60
2022-08-10T05:36:24.921Z,8.30
2022-08-10T05:39:31.789Z,7.40
2022-08-10T05:42:34.750Z,6.90
2022-08-10T05:46:19.074Z,6.90
2022-08-10T05:49:01.560Z,6.90
2022-08-10T05:52:04.184Z,6.70
2022-08-10T05:55:06.694Z,6.60
2022-08-10T05:58:09.357Z,6.60
2022-08-10T06:01:13.855Z,6.70
2022-08-10T06:04:20.541Z,6.40
2022-08-10T06:07:27.320Z,6.60
2022-08-10T06:10:32.537Z,6.20
2022-08-10T06:14:12.646Z,6.30
2022-08-10T06:17:17.191Z,6.90
2022-08-10T06:20:19.024Z,6.80
2022-08-10T06:23:21.172Z,6.70
2022-08-10T06:26:22.970Z,6.50
2022-08-10T06:29:25.599Z,6.60
2022-08-10T06:32:28.702Z,6.50
2022-08-10T06:35:32.605Z,6.60
2022-08-10T06:38:35.390Z,6.30
2022-08-10T06:42:14.994Z,6.60
2022-08-10T06:45:12.171Z,6.50
2022-08-10T06:48:25.309Z,6.80
2022-08-10T06:51:30.986Z,6.50
2022-08-10T06:54:33.482Z,6.90
2022-08-10T06:57:38.103Z,6.30
2022-08-10T07:00:41.750Z,6.20
2022-08-10T07:03:47.613Z,6.70
2022-08-10T07:06:49.529Z,6.80
2022-08-10T07:09:52.125Z,6.40
2022-08-10T07:12:58.311Z,6.70
2022-08-10T07:16:00.808Z,6.60
2022-08-10T07:19:03.176Z,6.20
2022-08-10T07:22:05.917Z,5.60
2022-08-10T07:25:09.557Z,6.00
2022-08-10T07:28:11.831Z,6.00
2022-08-10T07:31:56.616Z,5.80
2022-08-10T07:34:41.226Z,5.70
2022-08-10T07:37:47.058Z,5.50
2022-08-10T07:40:50.395Z,5.40
2022-08-10T07:43:53.138Z,5.20
2022-08-10T07:46:57.383Z,5.40
2022-08-10T07:50:03.089Z,5.40
2022-08-10T07:53:09.051Z,5.00
2022-08-10T07:56:26.287Z,5.30
2022-08-10T07:59:42.438Z,5.80
2022-08-10T08:02:58.260Z,4.40
2022-08-10T08:06:02.948Z,4.70
2022-08-10T08:09:05.780Z,4.60
2022-08-10T08:12:08.396Z,4.70
2022-08-10T08:16:17.580Z,5.20
2022-08-10T08:18:37.119Z,4.30
2022-08-10T08:24:04.647Z,4.30
2022-08-10T08:25:07.191Z,4.40
2022-08-10T08:31:14.955Z,3.90
2022-08-10T08:34:17.456Z,3.80
2022-08-10T08:38:31.390Z,4.20
2022-08-10T08:40:45.194Z,3.70
2022-08-10T08:43:54.466Z,3.60
2022-08-10T08:47:02.857Z,3.70
2022-08-10T08:50:47.230Z,3.90
2022-08-10T08:54:21.634Z,3.40
2022-08-10T08:57:49.672Z,3.60
2022-08-10T09:01:03.982Z,3.50
2022-08-10T09:04:38.064Z,3.80
2022-08-10T09:08:04.786Z,3.30
2022-08-10T09:11:17.184Z,3.50
2022-08-10T09:14:36.005Z,3.70
2022-08-10T09:18:05.810Z,3.60
2022-08-10T09:21:18.002Z,3.30
2022-08-10T09:24:28.818Z,3.20
2022-08-10T09:27:43.604Z,3.10
2022-08-10T09:31:18.844Z,3.20
2022-08-10T09:36:21.609Z,3.50
2022-08-10T09:38:14.577Z,3.20
2022-08-10T09:41:26.349Z,3.40
2022-08-10T09:44:34.153Z,3.10
2022-08-10T09:48:19.634Z,3.10
2022-08-10T09:51:48.042Z,3.20
2022-08-10T09:54:54.845Z,3.00
2022-08-10T09:58:35.978Z,2.90
2022-08-10T10:02:02.610Z,3.00
2022-08-10T10:05:25.534Z,3.10
2022-08-10T10:08:44.788Z,3.10
2022-08-10T10:12:18.914Z,3.10
2022-08-10T10:15:48.708Z,3.00
2022-08-10T10:19:28.929Z,3.20
2022-08-10T10:23:09.720Z,2.70
2022-08-10T10:26:49.112Z,3.00
2022-08-10T10:30:06.443Z,3.00
2022-08-10T10:33:21.061Z,3.10
2022-08-10T10:36:24.109Z,2.90
2022-08-10T10:39:26.463Z,3.00
2022-08-10T10:42:45.770Z,3.50
2022-08-10T10:46:29.280Z,3.20
2022-08-10T10:49:48.880Z,3.10
2022-08-10T10:53:10.163Z,2.70
2022-08-10T10:56:37.077Z,3.10
2022-08-10T11:00:06.184Z,3.00
2022-08-10T11:07:01.665Z,2.90
2022-08-10T11:10:33.578Z,3.00
2022-08-10T11:14:26.651Z,2.50
2022-08-10T11:17:34.690Z,2.70
2022-08-10T11:20:38.943Z,2.60
2022-08-10T11:24:48.664Z,2.10
2022-08-10T11:27:22.605Z,2.30
2022-08-10T11:30:48.231Z,2.30
2022-08-10T11:34:49.377Z,2.60
2022-08-10T11:38:32.159Z,2.30
2022-08-10T11:42:08.929Z,2.30
2022-08-10T11:45:02.745Z,2.30
2022-08-10T11:48:53.953Z,2.80
2022-08-10T11:51:49.117Z,2.50
2022-08-10T11:54:54.077Z,2.70
2022-08-10T11:58:00.227Z,2.50
2022-08-10T12:01:07.662Z,2.50
2022-08-10T12:04:12.101Z,2.30
2022-08-10T12:10:01.876Z,2.10
2022-08-10T12:10:40.764Z,2.60
2022-08-10T12:14:19.731Z,2.30
2022-08-10T12:17:22.888Z,2.70
2022-08-10T12:20:37.116Z,2.70
2022-08-10T12:23:46.034Z,2.50
2022-08-10T12:27:08.165Z,2.60
2022-08-10T12:30:16.557Z,2.20
2022-08-10T12:33:25.461Z,2.60
2022-08-10T12:36:29.348Z,2.60
2022-08-10T12:39:38.023Z,2.90
2022-08-10T12:43:03.887Z,2.70
2022-08-10T12:46:28.784Z,2.30
2022-08-10T12:49:34.912Z,2.50
2022-08-10T12:52:59.121Z,2.40
2022-08-10T12:56:08.639Z,2.40
2022-08-10T12:59:11.455Z,2.30
2022-08-10T13:02:23.642Z,2.50
2022-08-10T13:05:26.523Z,2.40
2022-08-10T13:08:51.177Z,2.60
2022-08-10T13:12:44.677Z,2.60
2022-08-10T13:15:50.010Z,2.20
2022-08-10T13:18:53.592Z,2.60
2022-08-10T13:21:56.644Z,2.90
2022-08-10T13:25:01.785Z,2.70
2022-08-10T13:28:36.563Z,2.30
2022-08-10T13:32:09.514Z,2.60
2022-08-10T13:34:53.861Z,2.80
2022-08-10T13:37:58.208Z,2.50
2022-08-10T13:41:01.028Z,2.40
2022-08-10T13:44:02.874Z,2.50
2022-08-10T13:47:05.973Z,2.90
2022-08-10T13:50:13.299Z,2.70
2022-08-10T13:53:18.253Z,2.90
2022-08-10T13:56:21.396Z,2.90
2022-08-10T14:00:34.568Z,2.80
2022-08-10T14:03:06.461Z,2.40
2022-08-10T14:06:13.017Z,2.70
2022-08-10T14:09:15.982Z,3.20
2022-08-10T14:12:18.121Z,2.90
2022-08-10T14:15:31.049Z,2.70
2022-08-10T14:18:36.853Z,2.80
2022-08-10T14:21:42.327Z,2.90
2022-08-10T14:24:44.118Z,2.60
2022-08-10T14:28:03.712Z,2.90
2022-08-10T14:31:21.868Z,3.30
2022-08-10T14:36:16.801Z,3.00
2022-08-10T14:37:55.486Z,3.20
2022-08-10T14:40:59.834Z,3.00
2022-08-10T14:44:07.053Z,3.00
2022-08-10T14:47:51.364Z,3.50
2022-08-10T14:50:33.555Z,3.00
2022-08-10T14:53:37.735Z,2.90
2022-08-10T14:56:39.639Z,3.00
2022-08-10T15:00:24.730Z,2.60
2022-08-10T15:03:11.097Z,2.60
2022-08-10T15:06:30.992Z,2.60
2022-08-10T15:10:02.183Z,2.50
2022-08-10T15:13:07.392Z,2.40
2022-08-10T15:16:31.728Z,2.60
2022-08-10T15:20:02.380Z,2.80
2022-08-10T15:23:06.784Z,2.80
2022-08-10T15:26:11.374Z,2.70
2022-08-10T15:29:23.303Z,3.10
2022-08-10T15:32:53.016Z,3.00
2022-08-10T15:36:14.012Z,3.30
2022-08-10T15:40:21.766Z,3.10
2022-08-10T15:42:42.076Z,3.00
2022-08-10T15:45:57.440Z,3.00
2022-08-10T15:49:02.216Z,3.30
2022-08-10T15:52:09.290Z,3.10
2022-08-10T15:55:43.844Z,3.00
2022-08-10T15:58:50.704Z,3.00
2022-08-10T16:02:13.373Z,2.80
2022-08-10T16:05:19.198Z,2.60
2022-08-10T16:08:56.208Z,2.90
2022-08-10T16:12:15.103Z,3.00
2022-08-10T16:15:18.708Z,3.00
2022-08-10T16:18:25.641Z,3.10
2022-08-10T16:21:28.689Z,3.10
2022-08-10T16:24:34.707Z,3.30
2022-08-10T16:27:38.377Z,3.50
2022-08-10T16:30:54.342Z,3.20
2022-08-10T16:34:00.606Z,2.90
2022-08-10T16:37:10.546Z,3.20
2022-08-10T16:40:13.595Z,3.30
2022-08-10T16:43:17.371Z,3.00
2022-08-10T16:46:26.526Z,3.00
2022-08-10T16:49:30.760Z,3.10
2022-08-10T16:52:34.374Z,2.90
2022-08-10T16:55:48.472Z,3.00
2022-08-10T16:58:55.563Z,3.10
2022-08-10T17:01:58.862Z,3.20
2022-08-10T17:05:01.027Z,3.30
2022-08-10T17:08:06.437Z,7.90
2022-08-10T17:11:08.322Z,4.00
2022-08-10T17:14:16.269Z,3.60
2022-08-10T17:17:22.303Z,4.60
2022-08-10T17:20:30.310Z,3.80
2022-08-10T17:23:35.905Z,3.60
2022-08-10T17:26:38.503Z,3.70
2022-08-10T17:29:57.519Z,3.70
2022-08-10T17:33:07.113Z,3.30
2022-08-10T17:36:08.950Z,3.60
2022-08-10T17:39:12.115Z,3.60
2022-08-10T17:42:20.853Z,3.40
2022-08-10T17:45:48.421Z,4.20
2022-08-10T17:48:52.447Z,5.60
2022-08-10T17:51:56.718Z,7.30
2022-08-10T17:55:04.600Z,8.00
2022-08-10T17:58:17.785Z,8.50
2022-08-10T18:01:42.075Z,8.80
2022-08-10T18:04:49.417Z,8.30
2022-08-10T18:07:53.710Z,8.30
2022-08-10T18:10:57.379Z,8.00
2022-08-10T18:14:06.055Z,8.20
2022-08-10T18:17:39.433Z,7.40
2022-08-10T18:20:42.806Z,5.50
2022-08-10T18:23:52.482Z,4.20
2022-08-10T18:26:55.722Z,4.40
2022-08-10T18:30:02.642Z,3.80
2022-08-10T18:33:09.537Z,3.80
2022-08-10T18:36:12.403Z,4.10
2022-08-10T18:39:15.344Z,4.30
2022-08-10T18:42:20.277Z,5.00
2022-08-10T18:45:26.001Z,4.70
2022-08-10T18:48:37.634Z,4.50
2022-08-10T18:51:46.870Z,4.50
2022-08-10T18:54:51.593Z,4.60
2022-08-10T18:57:56.498Z,4.80
2022-08-10T19:01:15.634Z,4.40
2022-08-10T19:04:52.086Z,4.40
2022-08-10T19:08:29.961Z,4.30
2022-08-10T19:11:48.671Z,4.40
2022-08-10T19:15:11.129Z,4.40
2022-08-10T19:18:30.940Z,4.50
2022-08-10T19:21:45.853Z,4.30
2022-08-10T19:25:00.190Z,4.10
2022-08-10T19:28:16.932Z,4.30
2022-08-10T19:31:41.847Z,4.50
2022-08-10T19:35:02.291Z,3.90
2022-08-10T19:38:16.822Z,3.90
2022-08-10T19:41:41.938Z,4.50
2022-08-10T19:44:55.801Z,4.50
2022-08-10T19:51:28.213Z,4.70
2022-08-10T19:54:59.939Z,4.80
2022-08-10T19:58:26.898Z,4.80
2022-08-10T20:01:55.371Z,4.60
2022-08-10T20:05:07.197Z,5.10
2022-08-10T20:08:28.147Z,4.70
2022-08-10T20:11:52.577Z,5.20
2022-08-10T20:15:10.317Z,5.40
2022-08-10T20:18:21.619Z,4.80
2022-08-10T20:24:41.664Z,4.80
2022-08-10T20:28:19.932Z,5.10
2022-08-10T20:31:29.627Z,5.20
2022-08-10T20:34:51.701Z,5.50
2022-08-10T20:38:11.203Z,5.40
2022-08-10T20:41:28.335Z,5.30
2022-08-10T20:45:04.493Z,5.80
2022-08-10T20:48:13.774Z,5.40
2022-08-10T20:51:21.244Z,5.60
2022-08-10T20:54:27.646Z,5.90
2022-08-10T20:58:03.878Z,6.30
2022-08-10T21:01:13.581Z,5.70
2022-08-10T21:04:41.506Z,7.70
2022-08-10T21:08:05.166Z,9.80
2022-08-10T21:11:14.577Z,8.40
2022-08-10T21:14:22.501Z,7.90
2022-08-10T21:17:58.445Z,6.50
2022-08-10T21:21:41.842Z,6.90
2022-08-10T21:24:53.409Z,7.70
2022-08-10T21:28:05.733Z,7.40
2022-08-10T21:31:10.448Z,6.90
2022-08-10T21:34:39.572Z,6.20
2022-08-10T21:38:08.260Z,6.70
2022-08-10T21:41:57.332Z,5.70
2022-08-10T21:45:59.339Z,5.80
2022-08-10T21:49:53.110Z,5.60
2022-08-10T21:53:22.636Z,6.00
2022-08-10T21:57:13.093Z,5.50
2022-08-10T22:04:13.732Z,4.60
2022-08-10T22:07:40.889Z,5.50
2022-08-10T22:11:10.921Z,5.30
2022-08-10T22:14:33.541Z,5.80
2022-08-10T22:18:00.768Z,5.60
2022-08-10T22:21:49.984Z,5.30
2022-08-10T22:25:23.063Z,5.70
2022-08-10T22:28:43.688Z,5.80
2022-08-10T22:32:09.485Z,5.70
2022-08-10T22:35:36.767Z,5.80
2022-08-10T22:39:13.870Z,5.80
2022-08-10T22:42:59.407Z,6.00
2022-08-10T22:46:42.825Z,6.00
2022-08-10T22:49:44.672Z,6.50
2022-08-10T22:53:02.055Z,6.60
2022-08-10T22:56:24.796Z,6.80
2022-08-10T22:59:29.192Z,6.70
2022-08-10T23:02:33.978Z,6.10
2022-08-10T23:05:39.475Z,6.20
2022-08-10T23:08:43.538Z,6.00
2022-08-10T23:11:47.515Z,6.40
2022-08-10T23:14:59.007Z,5.90
2022-08-10T23:18:23.161Z,6.50
2022-08-10T23:21:47.693Z,6.10
2022-08-10T23:25:01.270Z,7.00
2022-08-10T23:28:12.640Z,6.80
2022-08-10T23:32:01.465Z,6.60
2022-08-10T23:34:43.575Z,5.90
2022-08-10T23:37:45.852Z,6.40
2022-08-10T23:40:51.738Z,6.20
2022-08-10T23:44:04.123Z,6.40
2022-08-10T23:47:07.106Z,7.00
2022-08-10T23:50:11.412Z,6.40
2022-08-10T23:53:13.920Z,6.70
2022-08-10T23:56:18.644Z,6.20
2022-08-10T23:59:22.921Z,6.30
